sensor_id;sensor_type;location;lat;lon;timestamp;temperature;humidity
26575;DHT22;67165;50.256;10.978;2023-04-23T00:00:15;14.40;98.00
26575;DHT22;67165;50.256;10.978;2023-04-23T00:02:44;14.30;98.00
26575;DHT22;67165;50.256;10.978;2023-04-23T00:05:11;14.20;98.00
26575;DHT22;67165;50.256;10.978;2023-04-23T00:07:37;14.20;98.00
26575;DHT22;67165;50.256;10.978;2023-04-23T00:10:04;14.10;98.00
26575;DHT22;67165;50.256;10.978;2023-04-23T00:12:32;14.10;98.00
26575;DHT22;67165;50.256;10.978;2023-04-23T00:14:59;14.10;98.00
26575;DHT22;67165;50.256;10.978;2023-04-23T00:17:26;14.10;98.00
26575;DHT22;67165;50.256;10.978;2023-04-23T00:19:52;14.00;98.00
26575;DHT22;67165;50.256;10.978;2023-04-23T00:22:17;14.00;98.00
26575;DHT22;67165;50.256;10.978;2023-04-23T00:24:45;14.00;98.00
26575;DHT22;67165;50.256;10.978;2023-04-23T00:27:11;13.90;98.00
26575;DHT22;67165;50.256;10.978;2023-04-23T00:29:37;13.90;98.00
26575;DHT22;67165;50.256;10.978;2023-04-23T00:32:02;13.90;98.00
26575;DHT22;67165;50.256;10.978;2023-04-23T00:34:28;13.90;98.00
26575;DHT22;67165;50.256;10.978;2023-04-23T00:36:54;13.90;98.00
26575;DHT22;67165;50.256;10.978;2023-04-23T00:39:20;13.90;98.00
26575;DHT22;67165;50.256;10.978;2023-04-23T00:41:46;13.80;98.00
26575;DHT22;67165;50.256;10.978;2023-04-23T00:44:12;13.90;98.00
26575;DHT22;67165;50.256;10.978;2023-04-23T00:46:38;13.80;98.00
26575;DHT22;67165;50.256;10.978;2023-04-23T00:49:04;13.90;98.00
26575;DHT22;67165;50.256;10.978;2023-04-23T00:51:29;13.80;98.00
26575;DHT22;67165;50.256;10.978;2023-04-23T00:53:57;13.80;98.00
26575;DHT22;67165;50.256;10.978;2023-04-23T00:56:23;13.80;98.00
26575;DHT22;67165;50.256;10.978;2023-04-23T00:58:53;13.80;98.00
26575;DHT22;67165;50.256;10.978;2023-04-23T01:01:19;13.80;98.00
26575;DHT22;67165;50.256;10.978;2023-04-23T01:03:48;13.70;98.00
26575;DHT22;67165;50.256;10.978;2023-04-23T01:06:15;13.70;98.00
26575;DHT22;67165;50.256;10.978;2023-04-23T01:08:46;13.70;98.00
26575;DHT22;67165;50.256;10.978;2023-04-23T01:11:15;13.60;98.00
26575;DHT22;67165;50.256;10.978;2023-04-23T01:13:42;13.60;98.00
26575;DHT22;67165;50.256;10.978;2023-04-23T01:16:08;13.60;98.00
26575;DHT22;67165;50.256;10.978;2023-04-23T01:18:34;13.50;98.00
26575;DHT22;67165;50.256;10.978;2023-04-23T01:21:00;13.50;98.00
26575;DHT22;67165;50.256;10.978;2023-04-23T01:23:27;13.40;98.00
26575;DHT22;67165;50.256;10.978;2023-04-23T01:25:53;13.40;98.00
26575;DHT22;67165;50.256;10.978;2023-04-23T01:28:20;13.40;98.00
26575;DHT22;67165;50.256;10.978;2023-04-23T01:30:47;13.40;98.00
26575;DHT22;67165;50.256;10.978;2023-04-23T01:33:16;13.40;98.00
26575;DHT22;67165;50.256;10.978;2023-04-23T01:35:43;13.40;98.00
26575;DHT22;67165;50.256;10.978;2023-04-23T01:38:11;13.30;98.00
26575;DHT22;67165;50.256;10.978;2023-04-23T01:40:38;13.30;98.00
26575;DHT22;67165;50.256;10.978;2023-04-23T01:43:04;13.30;98.00
26575;DHT22;67165;50.256;10.978;2023-04-23T01:45:30;13.30;98.00
26575;DHT22;67165;50.256;10.978;2023-04-23T01:47:59;13.30;98.00
26575;DHT22;67165;50.256;10.978;2023-04-23T01:50:26;13.30;98.00
26575;DHT22;67165;50.256;10.978;2023-04-23T01:52:54;13.20;98.00
26575;DHT22;67165;50.256;10.978;2023-04-23T01:55:19;13.20;98.00
26575;DHT22;67165;50.256;10.978;2023-04-23T01:57:46;13.20;98.00
26575;DHT22;67165;50.256;10.978;2023-04-23T02:00:13;13.20;98.00
26575;DHT22;67165;50.256;10.978;2023-04-23T02:02:41;13.20;98.00
26575;DHT22;67165;50.256;10.978;2023-04-23T02:05:12;13.20;98.00
26575;DHT22;67165;50.256;10.978;2023-04-23T02:07:38;13.20;98.00
26575;DHT22;67165;50.256;10.978;2023-04-23T02:10:05;13.20;98.00
26575;DHT22;67165;50.256;10.978;2023-04-23T02:12:31;13.20;98.00
26575;DHT22;67165;50.256;10.978;2023-04-23T02:14:56;13.20;98.00
26575;DHT22;67165;50.256;10.978;2023-04-23T02:17:22;13.20;98.00
26575;DHT22;67165;50.256;10.978;2023-04-23T02:19:49;13.20;98.00
26575;DHT22;67165;50.256;10.978;2023-04-23T02:22:16;13.20;98.00
26575;DHT22;67165;50.256;10.978;2023-04-23T02:24:42;13.20;98.00
26575;DHT22;67165;50.256;10.978;2023-04-23T02:27:08;13.10;98.00
26575;DHT22;67165;50.256;10.978;2023-04-23T02:29:34;13.10;98.00
26575;DHT22;67165;50.256;10.978;2023-04-23T02:32:01;13.10;98.00
26575;DHT22;67165;50.256;10.978;2023-04-23T02:34:27;13.10;98.00
26575;DHT22;67165;50.256;10.978;2023-04-23T02:36:53;13.10;98.00
26575;DHT22;67165;50.256;10.978;2023-04-23T02:39:18;13.10;98.00
26575;DHT22;67165;50.256;10.978;2023-04-23T02:41:44;13.10;98.00
26575;DHT22;67165;50.256;10.978;2023-04-23T02:44:09;13.10;98.00
26575;DHT22;67165;50.256;10.978;2023-04-23T02:46:35;13.10;98.00
26575;DHT22;67165;50.256;10.978;2023-04-23T02:49:02;13.20;98.00
26575;DHT22;67165;50.256;10.978;2023-04-23T02:51:29;13.10;98.00
26575;DHT22;67165;50.256;10.978;2023-04-23T02:53:55;13.10;98.00
26575;DHT22;67165;50.256;10.978;2023-04-23T02:56:21;13.10;98.00
26575;DHT22;67165;50.256;10.978;2023-04-23T02:58:47;13.10;98.00
26575;DHT22;67165;50.256;10.978;2023-04-23T03:01:13;13.10;98.00
26575;DHT22;67165;50.256;10.978;2023-04-23T03:03:38;13.10;98.00
26575;DHT22;67165;50.256;10.978;2023-04-23T03:06:05;13.10;98.00
26575;DHT22;67165;50.256;10.978;2023-04-23T03:08:31;13.10;98.00
26575;DHT22;67165;50.256;10.978;2023-04-23T03:10:57;13.10;98.00
26575;DHT22;67165;50.256;10.978;2023-04-23T03:13:23;13.00;98.00
26575;DHT22;67165;50.256;10.978;2023-04-23T03:15:49;13.00;98.00
26575;DHT22;67165;50.256;10.978;2023-04-23T03:18:15;13.00;98.00
26575;DHT22;67165;50.256;10.978;2023-04-23T03:20:40;13.00;98.00
26575;DHT22;67165;50.256;10.978;2023-04-23T03:23:06;12.90;98.00
26575;DHT22;67165;50.256;10.978;2023-04-23T03:25:33;12.90;98.00
26575;DHT22;67165;50.256;10.978;2023-04-23T03:27:58;12.90;98.00
26575;DHT22;67165;50.256;10.978;2023-04-23T03:30:25;12.90;98.00
26575;DHT22;67165;50.256;10.978;2023-04-23T03:32:53;12.90;98.00
26575;DHT22;67165;50.256;10.978;2023-04-23T03:35:19;12.90;98.00
26575;DHT22;67165;50.256;10.978;2023-04-23T03:37:45;12.90;98.00
26575;DHT22;67165;50.256;10.978;2023-04-23T03:40:11;12.90;98.00
26575;DHT22;67165;50.256;10.978;2023-04-23T03:42:36;12.90;98.00
26575;DHT22;67165;50.256;10.978;2023-04-23T03:45:02;12.80;98.00
26575;DHT22;67165;50.256;10.978;2023-04-23T03:47:28;12.80;98.00
26575;DHT22;67165;50.256;10.978;2023-04-23T03:49:55;12.70;98.00
26575;DHT22;67165;50.256;10.978;2023-04-23T03:52:21;12.70;98.00
26575;DHT22;67165;50.256;10.978;2023-04-23T03:54:46;12.70;98.00
26575;DHT22;67165;50.256;10.978;2023-04-23T03:57:12;12.60;98.00
26575;DHT22;67165;50.256;10.978;2023-04-23T03:59:37;12.60;98.00
26575;DHT22;67165;50.256;10.978;2023-04-23T04:02:03;12.60;98.00
26575;DHT22;67165;50.256;10.978;2023-04-23T04:04:30;12.60;98.00
26575;DHT22;67165;50.256;10.978;2023-04-23T04:06:56;12.60;98.00
26575;DHT22;67165;50.256;10.978;2023-04-23T04:09:22;12.60;98.00
26575;DHT22;67165;50.256;10.978;2023-04-23T04:11:48;12.60;98.00
26575;DHT22;67165;50.256;10.978;2023-04-23T04:14:13;12.60;98.00
26575;DHT22;67165;50.256;10.978;2023-04-23T04:16:39;12.50;98.00
26575;DHT22;67165;50.256;10.978;2023-04-23T04:19:06;12.40;98.00
26575;DHT22;67165;50.256;10.978;2023-04-23T04:21:31;12.40;98.00
26575;DHT22;67165;50.256;10.978;2023-04-23T04:23:58;12.40;98.00
26575;DHT22;67165;50.256;10.978;2023-04-23T04:26:26;12.30;98.00
26575;DHT22;67165;50.256;10.978;2023-04-23T04:28:52;12.30;98.00
26575;DHT22;67165;50.256;10.978;2023-04-23T04:31:18;12.40;98.00
26575;DHT22;67165;50.256;10.978;2023-04-23T04:33:47;12.30;98.00
26575;DHT22;67165;50.256;10.978;2023-04-23T04:36:13;12.30;98.00
26575;DHT22;67165;50.256;10.978;2023-04-23T04:38:39;12.20;98.00
26575;DHT22;67165;50.256;10.978;2023-04-23T04:41:06;12.30;98.00
26575;DHT22;67165;50.256;10.978;2023-04-23T04:43:32;12.30;98.00
26575;DHT22;67165;50.256;10.978;2023-04-23T04:45:59;12.30;98.00
26575;DHT22;67165;50.256;10.978;2023-04-23T04:48:25;12.20;98.00
26575;DHT22;67165;50.256;10.978;2023-04-23T04:50:51;12.20;98.00
26575;DHT22;67165;50.256;10.978;2023-04-23T04:53:17;12.20;98.00
26575;DHT22;67165;50.256;10.978;2023-04-23T04:55:43;12.20;98.00
26575;DHT22;67165;50.256;10.978;2023-04-23T04:58:08;12.20;98.00
26575;DHT22;67165;50.256;10.978;2023-04-23T05:00:34;12.20;98.00
26575;DHT22;67165;50.256;10.978;2023-04-23T05:03:00;12.20;98.00
26575;DHT22;67165;50.256;10.978;2023-04-23T05:05:26;12.30;98.00
26575;DHT22;67165;50.256;10.978;2023-04-23T05:07:53;12.20;98.00
26575;DHT22;67165;50.256;10.978;2023-04-23T05:10:19;12.30;98.00
26575;DHT22;67165;50.256;10.978;2023-04-23T05:12:45;12.20;98.00
26575;DHT22;67165;50.256;10.978;2023-04-23T05:15:12;12.30;98.00
26575;DHT22;67165;50.256;10.978;2023-04-23T05:17:39;12.30;98.00
26575;DHT22;67165;50.256;10.978;2023-04-23T05:20:05;12.30;98.00
26575;DHT22;67165;50.256;10.978;2023-04-23T05:22:32;12.20;98.00
26575;DHT22;67165;50.256;10.978;2023-04-23T05:24:58;12.30;98.00
26575;DHT22;67165;50.256;10.978;2023-04-23T05:27:23;12.30;98.00
26575;DHT22;67165;50.256;10.978;2023-04-23T05:29:49;12.30;98.00
26575;DHT22;67165;50.256;10.978;2023-04-23T05:32:15;12.20;98.00
26575;DHT22;67165;50.256;10.978;2023-04-23T05:34:40;12.20;98.00
26575;DHT22;67165;50.256;10.978;2023-04-23T05:37:06;12.20;98.00
26575;DHT22;67165;50.256;10.978;2023-04-23T05:39:32;12.20;98.00
26575;DHT22;67165;50.256;10.978;2023-04-23T05:41:57;12.20;98.00
26575;DHT22;67165;50.256;10.978;2023-04-23T05:44:23;12.20;98.00
26575;DHT22;67165;50.256;10.978;2023-04-23T05:46:49;12.20;98.00
26575;DHT22;67165;50.256;10.978;2023-04-23T05:49:14;12.20;98.00
26575;DHT22;67165;50.256;10.978;2023-04-23T05:51:40;12.20;98.00
26575;DHT22;67165;50.256;10.978;2023-04-23T05:54:06;12.30;98.00
26575;DHT22;67165;50.256;10.978;2023-04-23T05:56:31;12.30;98.00
26575;DHT22;67165;50.256;10.978;2023-04-23T05:58:57;12.30;98.00
26575;DHT22;67165;50.256;10.978;2023-04-23T06:01:22;12.30;98.00
26575;DHT22;67165;50.256;10.978;2023-04-23T06:03:49;12.20;98.00
26575;DHT22;67165;50.256;10.978;2023-04-23T06:06:14;12.20;98.00
26575;DHT22;67165;50.256;10.978;2023-04-23T06:08:40;12.20;98.00
26575;DHT22;67165;50.256;10.978;2023-04-23T06:11:05;12.20;98.00
26575;DHT22;67165;50.256;10.978;2023-04-23T06:13:32;12.20;98.00
26575;DHT22;67165;50.256;10.978;2023-04-23T06:15:57;12.20;98.00
26575;DHT22;67165;50.256;10.978;2023-04-23T06:18:23;12.30;98.00
26575;DHT22;67165;50.256;10.978;2023-04-23T06:20:49;12.30;98.00
26575;DHT22;67165;50.256;10.978;2023-04-23T06:23:16;12.40;98.00
26575;DHT22;67165;50.256;10.978;2023-04-23T06:25:42;12.40;98.00
26575;DHT22;67165;50.256;10.978;2023-04-23T06:28:08;12.40;98.00
26575;DHT22;67165;50.256;10.978;2023-04-23T06:30:33;12.40;98.00
26575;DHT22;67165;50.256;10.978;2023-04-23T06:33:00;12.50;98.00
26575;DHT22;67165;50.256;10.978;2023-04-23T06:35:26;12.50;98.00
26575;DHT22;67165;50.256;10.978;2023-04-23T06:37:52;12.60;98.00
26575;DHT22;67165;50.256;10.978;2023-04-23T06:40:17;12.80;98.00
26575;DHT22;67165;50.256;10.978;2023-04-23T06:42:43;13.00;98.00
26575;DHT22;67165;50.256;10.978;2023-04-23T06:45:10;13.10;98.00
26575;DHT22;67165;50.256;10.978;2023-04-23T06:47:36;13.20;98.00
26575;DHT22;67165;50.256;10.978;2023-04-23T06:50:01;13.30;98.00
26575;DHT22;67165;50.256;10.978;2023-04-23T06:52:27;13.30;98.00
26575;DHT22;67165;50.256;10.978;2023-04-23T06:54:53;13.30;98.00
26575;DHT22;67165;50.256;10.978;2023-04-23T06:57:18;13.20;98.00
26575;DHT22;67165;50.256;10.978;2023-04-23T06:59:44;13.20;98.00
26575;DHT22;67165;50.256;10.978;2023-04-23T07:02:10;13.10;98.00
26575;DHT22;67165;50.256;10.978;2023-04-23T07:04:36;13.10;98.00
26575;DHT22;67165;50.256;10.978;2023-04-23T07:07:01;13.00;98.00
26575;DHT22;67165;50.256;10.978;2023-04-23T07:09:28;13.00;98.00
26575;DHT22;67165;50.256;10.978;2023-04-23T07:11:53;12.90;98.00
26575;DHT22;67165;50.256;10.978;2023-04-23T07:14:19;12.90;98.00
26575;DHT22;67165;50.256;10.978;2023-04-23T07:16:45;13.00;98.00
26575;DHT22;67165;50.256;10.978;2023-04-23T07:19:10;13.00;98.00
26575;DHT22;67165;50.256;10.978;2023-04-23T07:21:36;13.00;98.00
26575;DHT22;67165;50.256;10.978;2023-04-23T07:24:01;13.00;98.00
26575;DHT22;67165;50.256;10.978;2023-04-23T07:26:32;12.90;98.00
26575;DHT22;67165;50.256;10.978;2023-04-23T07:28:57;12.90;98.00
26575;DHT22;67165;50.256;10.978;2023-04-23T07:31:23;12.90;98.00
26575;DHT22;67165;50.256;10.978;2023-04-23T07:33:49;12.90;98.00
26575;DHT22;67165;50.256;10.978;2023-04-23T07:36:15;13.00;98.00
26575;DHT22;67165;50.256;10.978;2023-04-23T07:38:41;13.00;98.00
26575;DHT22;67165;50.256;10.978;2023-04-23T07:41:07;13.00;98.00
26575;DHT22;67165;50.256;10.978;2023-04-23T07:43:33;13.10;98.00
26575;DHT22;67165;50.256;10.978;2023-04-23T07:45:59;13.10;98.00
26575;DHT22;67165;50.256;10.978;2023-04-23T07:48:24;13.30;98.00
26575;DHT22;67165;50.256;10.978;2023-04-23T07:50:50;13.50;98.00
26575;DHT22;67165;50.256;10.978;2023-04-23T07:53:16;13.80;98.00
26575;DHT22;67165;50.256;10.978;2023-04-23T07:55:41;14.10;98.00
26575;DHT22;67165;50.256;10.978;2023-04-23T07:58:07;14.30;98.00
26575;DHT22;67165;50.256;10.978;2023-04-23T08:00:32;14.40;98.00
26575;DHT22;67165;50.256;10.978;2023-04-23T08:02:58;14.40;98.00
26575;DHT22;67165;50.256;10.978;2023-04-23T08:05:24;14.50;98.00
26575;DHT22;67165;50.256;10.978;2023-04-23T08:07:51;14.80;98.00
26575;DHT22;67165;50.256;10.978;2023-04-23T08:10:16;14.90;98.00
26575;DHT22;67165;50.256;10.978;2023-04-23T08:12:43;15.00;98.00
26575;DHT22;67165;50.256;10.978;2023-04-23T08:15:09;14.90;98.00
26575;DHT22;67165;50.256;10.978;2023-04-23T08:17:35;15.00;98.00
26575;DHT22;67165;50.256;10.978;2023-04-23T08:20:01;15.20;98.00
26575;DHT22;67165;50.256;10.978;2023-04-23T08:22:28;15.30;98.00
26575;DHT22;67165;50.256;10.978;2023-04-23T08:24:53;15.40;98.00
26575;DHT22;67165;50.256;10.978;2023-04-23T08:27:19;15.50;98.00
26575;DHT22;67165;50.256;10.978;2023-04-23T08:29:45;15.60;98.00
26575;DHT22;67165;50.256;10.978;2023-04-23T08:32:11;15.80;98.00
26575;DHT22;67165;50.256;10.978;2023-04-23T08:34:37;15.90;98.00
26575;DHT22;67165;50.256;10.978;2023-04-23T08:37:05;16.10;98.00
26575;DHT22;67165;50.256;10.978;2023-04-23T08:39:33;16.30;98.00
26575;DHT22;67165;50.256;10.978;2023-04-23T08:42:04;16.60;98.00
26575;DHT22;67165;50.256;10.978;2023-04-23T08:44:32;16.50;98.00
26575;DHT22;67165;50.256;10.978;2023-04-23T08:47:00;16.50;98.00
26575;DHT22;67165;50.256;10.978;2023-04-23T08:49:32;16.20;98.00
26575;DHT22;67165;50.256;10.978;2023-04-23T08:52:07;16.10;98.00
26575;DHT22;67165;50.256;10.978;2023-04-23T08:54:36;15.80;98.00
26575;DHT22;67165;50.256;10.978;2023-04-23T08:57:06;16.00;98.00
26575;DHT22;67165;50.256;10.978;2023-04-23T08:59:33;16.40;98.00
26575;DHT22;67165;50.256;10.978;2023-04-23T09:01:59;16.50;98.00
26575;DHT22;67165;50.256;10.978;2023-04-23T09:04:26;16.40;98.00
26575;DHT22;67165;50.256;10.978;2023-04-23T09:06:54;16.30;98.00
26575;DHT22;67165;50.256;10.978;2023-04-23T09:09:20;16.30;98.00
26575;DHT22;67165;50.256;10.978;2023-04-23T09:11:48;16.10;98.00
26575;DHT22;67165;50.256;10.978;2023-04-23T09:14:14;16.30;98.00
26575;DHT22;67165;50.256;10.978;2023-04-23T09:16:40;16.40;98.00
26575;DHT22;67165;50.256;10.978;2023-04-23T09:19:09;16.40;98.00
26575;DHT22;67165;50.256;10.978;2023-04-23T09:21:36;16.60;98.00
26575;DHT22;67165;50.256;10.978;2023-04-23T09:24:08;16.70;98.00
26575;DHT22;67165;50.256;10.978;2023-04-23T09:26:45;16.90;98.00
26575;DHT22;67165;50.256;10.978;2023-04-23T09:29:19;16.80;98.00
26575;DHT22;67165;50.256;10.978;2023-04-23T09:31:47;16.80;98.00
26575;DHT22;67165;50.256;10.978;2023-04-23T09:34:15;17.10;98.00
26575;DHT22;67165;50.256;10.978;2023-04-23T09:36:43;17.40;98.00
26575;DHT22;67165;50.256;10.978;2023-04-23T09:39:13;17.90;98.00
26575;DHT22;67165;50.256;10.978;2023-04-23T09:41:40;18.30;98.00
26575;DHT22;67165;50.256;10.978;2023-04-23T09:44:06;18.20;98.00
26575;DHT22;67165;50.256;10.978;2023-04-23T09:46:38;18.40;98.00
26575;DHT22;67165;50.256;10.978;2023-04-23T09:49:05;18.70;98.00
26575;DHT22;67165;50.256;10.978;2023-04-23T09:51:42;18.30;98.00
26575;DHT22;67165;50.256;10.978;2023-04-23T09:54:12;18.10;98.00
26575;DHT22;67165;50.256;10.978;2023-04-23T09:56:42;18.00;98.00
26575;DHT22;67165;50.256;10.978;2023-04-23T09:59:25;17.90;98.00
26575;DHT22;67165;50.256;10.978;2023-04-23T10:01:52;17.70;98.00
26575;DHT22;67165;50.256;10.978;2023-04-23T10:04:20;17.70;98.00
26575;DHT22;67165;50.256;10.978;2023-04-23T10:06:53;17.50;98.00
26575;DHT22;67165;50.256;10.978;2023-04-23T10:09:20;17.40;98.00
26575;DHT22;67165;50.256;10.978;2023-04-23T10:11:53;17.50;98.00
26575;DHT22;67165;50.256;10.978;2023-04-23T10:14:22;17.50;98.00
26575;DHT22;67165;50.256;10.978;2023-04-23T10:16:56;17.60;98.00
26575;DHT22;67165;50.256;10.978;2023-04-23T10:19:23;17.80;98.00
26575;DHT22;67165;50.256;10.978;2023-04-23T10:21:55;17.70;98.00
26575;DHT22;67165;50.256;10.978;2023-04-23T10:24:33;18.00;98.00
26575;DHT22;67165;50.256;10.978;2023-04-23T10:27:01;18.30;98.00
26575;DHT22;67165;50.256;10.978;2023-04-23T10:29:30;18.50;98.00
26575;DHT22;67165;50.256;10.978;2023-04-23T10:31:59;18.60;98.00
26575;DHT22;67165;50.256;10.978;2023-04-23T10:34:28;18.50;98.00
26575;DHT22;67165;50.256;10.978;2023-04-23T10:36:55;18.50;98.00
26575;DHT22;67165;50.256;10.978;2023-04-23T10:39:23;18.50;98.00
26575;DHT22;67165;50.256;10.978;2023-04-23T10:41:49;18.40;98.00
26575;DHT22;67165;50.256;10.978;2023-04-23T10:44:19;18.60;98.00
26575;DHT22;67165;50.256;10.978;2023-04-23T10:46:54;18.90;98.00
26575;DHT22;67165;50.256;10.978;2023-04-23T10:49:23;18.70;98.00
26575;DHT22;67165;50.256;10.978;2023-04-23T10:52:06;18.80;98.00
26575;DHT22;67165;50.256;10.978;2023-04-23T10:54:34;18.90;98.00
26575;DHT22;67165;50.256;10.978;2023-04-23T10:57:02;18.80;98.00
26575;DHT22;67165;50.256;10.978;2023-04-23T10:59:32;18.90;98.00
26575;DHT22;67165;50.256;10.978;2023-04-23T11:02:09;19.00;98.00
26575;DHT22;67165;50.256;10.978;2023-04-23T11:07:25;18.70;98.00
26575;DHT22;67165;50.256;10.978;2023-04-23T11:09:58;18.50;98.00
26575;DHT22;67165;50.256;10.978;2023-04-23T11:14:50;18.30;98.00
26575;DHT22;67165;50.256;10.978;2023-04-23T11:17:20;18.60;98.00
26575;DHT22;67165;50.256;10.978;2023-04-23T11:22:51;19.00;98.00
26575;DHT22;67165;50.256;10.978;2023-04-23T11:27:49;19.10;98.00
26575;DHT22;67165;50.256;10.978;2023-04-23T11:32:45;19.40;98.00
26575;DHT22;67165;50.256;10.978;2023-04-23T11:35:14;19.50;98.00
26575;DHT22;67165;50.256;10.978;2023-04-23T11:37:41;19.50;98.00
26575;DHT22;67165;50.256;10.978;2023-04-23T11:40:09;19.40;98.00
26575;DHT22;67165;50.256;10.978;2023-04-23T11:42:43;19.40;98.00
26575;DHT22;67165;50.256;10.978;2023-04-23T11:47:48;19.50;98.00
26575;DHT22;67165;50.256;10.978;2023-04-23T11:50:19;19.70;98.00
26575;DHT22;67165;50.256;10.978;2023-04-23T11:52:45;19.50;98.00
26575;DHT22;67165;50.256;10.978;2023-04-23T11:55:12;19.30;98.00
26575;DHT22;67165;50.256;10.978;2023-04-23T11:57:49;19.30;98.00
26575;DHT22;67165;50.256;10.978;2023-04-23T12:00:16;19.30;98.00
26575;DHT22;67165;50.256;10.978;2023-04-23T12:02:56;19.50;98.00
26575;DHT22;67165;50.256;10.978;2023-04-23T12:05:42;19.40;98.00
26575;DHT22;67165;50.256;10.978;2023-04-23T12:08:17;19.60;98.00
26575;DHT22;67165;50.256;10.978;2023-04-23T12:10:51;19.60;98.00
26575;DHT22;67165;50.256;10.978;2023-04-23T12:13:18;19.70;98.00
26575;DHT22;67165;50.256;10.978;2023-04-23T12:15:55;19.60;98.00
26575;DHT22;67165;50.256;10.978;2023-04-23T12:18:33;19.90;98.00
26575;DHT22;67165;50.256;10.978;2023-04-23T12:21:13;19.70;98.00
26575;DHT22;67165;50.256;10.978;2023-04-23T12:23:41;19.10;98.00
26575;DHT22;67165;50.256;10.978;2023-04-23T12:26:13;19.10;98.00
26575;DHT22;67165;50.256;10.978;2023-04-23T12:31:18;19.10;98.00
26575;DHT22;67165;50.256;10.978;2023-04-23T12:33:44;19.00;98.00
26575;DHT22;67165;50.256;10.978;2023-04-23T12:36:10;18.90;98.00
26575;DHT22;67165;50.256;10.978;2023-04-23T12:38:36;19.10;98.00
26575;DHT22;67165;50.256;10.978;2023-04-23T12:41:03;19.20;98.00
26575;DHT22;67165;50.256;10.978;2023-04-23T12:43:29;19.20;98.00
26575;DHT22;67165;50.256;10.978;2023-04-23T12:45:55;18.90;98.00
26575;DHT22;67165;50.256;10.978;2023-04-23T12:48:20;19.00;98.00
26575;DHT22;67165;50.256;10.978;2023-04-23T12:50:47;19.10;98.00
26575;DHT22;67165;50.256;10.978;2023-04-23T12:53:13;19.10;98.00
26575;DHT22;67165;50.256;10.978;2023-04-23T12:55:39;19.10;98.00
26575;DHT22;67165;50.256;10.978;2023-04-23T12:58:05;18.90;98.00
26575;DHT22;67165;50.256;10.978;2023-04-23T13:00:31;19.00;98.00
26575;DHT22;67165;50.256;10.978;2023-04-23T13:02:57;19.20;98.00
26575;DHT22;67165;50.256;10.978;2023-04-23T13:05:23;19.30;98.00
26575;DHT22;67165;50.256;10.978;2023-04-23T13:07:49;19.40;98.00
26575;DHT22;67165;50.256;10.978;2023-04-23T13:10:15;19.50;98.00
26575;DHT22;67165;50.256;10.978;2023-04-23T13:12:41;19.30;98.00
26575;DHT22;67165;50.256;10.978;2023-04-23T13:15:07;19.30;98.00
26575;DHT22;67165;50.256;10.978;2023-04-23T13:17:35;19.50;98.00
26575;DHT22;67165;50.256;10.978;2023-04-23T13:20:00;19.70;98.00
26575;DHT22;67165;50.256;10.978;2023-04-23T13:22:26;19.90;98.00
26575;DHT22;67165;50.256;10.978;2023-04-23T13:24:56;19.90;98.00
26575;DHT22;67165;50.256;10.978;2023-04-23T13:27:28;19.90;98.00
26575;DHT22;67165;50.256;10.978;2023-04-23T13:29:55;20.00;98.00
26575;DHT22;67165;50.256;10.978;2023-04-23T13:32:21;19.70;97.60
26575;DHT22;67165;50.256;10.978;2023-04-23T13:34:48;19.70;98.00
26575;DHT22;67165;50.256;10.978;2023-04-23T13:37:14;19.60;98.00
26575;DHT22;67165;50.256;10.978;2023-04-23T13:39:40;19.50;98.00
26575;DHT22;67165;50.256;10.978;2023-04-23T13:42:05;19.60;98.00
26575;DHT22;67165;50.256;10.978;2023-04-23T13:44:31;19.70;97.90
26575;DHT22;67165;50.256;10.978;2023-04-23T13:46:57;19.60;97.80
26575;DHT22;67165;50.256;10.978;2023-04-23T13:49:26;19.40;98.00
26575;DHT22;67165;50.256;10.978;2023-04-23T13:51:55;19.40;98.00
26575;DHT22;67165;50.256;10.978;2023-04-23T13:54:25;19.40;97.90
26575;DHT22;67165;50.256;10.978;2023-04-23T13:56:57;19.40;98.00
26575;DHT22;67165;50.256;10.978;2023-04-23T13:59:24;19.50;98.00
26575;DHT22;67165;50.256;10.978;2023-04-23T14:01:50;19.40;98.00
26575;DHT22;67165;50.256;10.978;2023-04-23T14:04:16;19.50;98.00
26575;DHT22;67165;50.256;10.978;2023-04-23T14:06:42;19.60;98.00
26575;DHT22;67165;50.256;10.978;2023-04-23T14:09:07;19.60;98.00
26575;DHT22;67165;50.256;10.978;2023-04-23T14:11:33;19.80;98.00
26575;DHT22;67165;50.256;10.978;2023-04-23T14:13:59;20.00;98.00
26575;DHT22;67165;50.256;10.978;2023-04-23T14:16:25;20.30;97.50
26575;DHT22;67165;50.256;10.978;2023-04-23T14:18:51;20.40;97.50
26575;DHT22;67165;50.256;10.978;2023-04-23T14:21:17;20.50;97.90
26575;DHT22;67165;50.256;10.978;2023-04-23T14:23:55;20.40;96.10
26575;DHT22;67165;50.256;10.978;2023-04-23T14:26:27;20.10;96.90
26575;DHT22;67165;50.256;10.978;2023-04-23T14:28:56;19.80;96.10
26575;DHT22;67165;50.256;10.978;2023-04-23T14:31:22;19.80;97.10
26575;DHT22;67165;50.256;10.978;2023-04-23T14:33:47;19.70;97.50
26575;DHT22;67165;50.256;10.978;2023-04-23T14:36:13;19.80;96.50
26575;DHT22;67165;50.256;10.978;2023-04-23T14:38:39;19.80;95.60
26575;DHT22;67165;50.256;10.978;2023-04-23T14:41:05;19.70;95.70
26575;DHT22;67165;50.256;10.978;2023-04-23T14:43:30;19.60;95.40
26575;DHT22;67165;50.256;10.978;2023-04-23T14:45:56;19.60;95.90
26575;DHT22;67165;50.256;10.978;2023-04-23T14:48:22;19.70;98.00
26575;DHT22;67165;50.256;10.978;2023-04-23T14:50:47;20.00;98.00
26575;DHT22;67165;50.256;10.978;2023-04-23T14:53:13;19.90;98.00
26575;DHT22;67165;50.256;10.978;2023-04-23T14:55:39;19.80;98.00
26575;DHT22;67165;50.256;10.978;2023-04-23T14:58:07;19.60;97.70
26575;DHT22;67165;50.256;10.978;2023-04-23T15:00:33;19.70;98.00
26575;DHT22;67165;50.256;10.978;2023-04-23T15:02:59;19.70;98.00
26575;DHT22;67165;50.256;10.978;2023-04-23T15:05:26;19.70;98.00
26575;DHT22;67165;50.256;10.978;2023-04-23T15:07:52;19.60;98.00
26575;DHT22;67165;50.256;10.978;2023-04-23T15:10:18;19.60;98.00
26575;DHT22;67165;50.256;10.978;2023-04-23T15:12:54;19.70;98.00
26575;DHT22;67165;50.256;10.978;2023-04-23T15:15:34;19.70;98.00
26575;DHT22;67165;50.256;10.978;2023-04-23T15:18:02;19.70;98.00
26575;DHT22;67165;50.256;10.978;2023-04-23T15:20:27;19.50;98.00
26575;DHT22;67165;50.256;10.978;2023-04-23T15:22:55;19.30;98.00
26575;DHT22;67165;50.256;10.978;2023-04-23T15:25:23;19.30;98.00
26575;DHT22;67165;50.256;10.978;2023-04-23T15:27:49;19.30;98.00
26575;DHT22;67165;50.256;10.978;2023-04-23T15:30:24;19.30;98.00
26575;DHT22;67165;50.256;10.978;2023-04-23T15:32:54;19.40;98.00